Time;durP1;ratioP1;P1;durP2;ratioP2;P2;SDS_P1;SDS_P2;PMS_P1;PMS_P2;Temp;Humidity;BMP_temperature;BMP_pressure;BME280_temperature;BME280_humidity;BME280_pressure;Samples;Min_cycle;Max_cycle;Signal;HPM_P1;HPM_P2
2022/04/16 00:00:33;;;;;;;6.13;5.50;;;11.60;99.90;;;;;;5135855;27;20536;-50
2022/04/16 00:02:59;;;;;;;9.00;6.37;;;11.40;99.90;;;;;;5135785;27;20858;-50
2022/04/16 00:05:26;;;;;;;6.13;5.47;;;11.40;99.90;;;;;;5136166;27;20563;-49
2022/04/16 00:08:08;;;;;;;6.70;6.10;;;11.30;99.90;;;;;;5135695;27;20988;-50
2022/04/16 00:10:36;;;;;;;7.93;6.50;;;11.30;99.90;;;;;;5135976;27;20457;-52
2022/04/16 00:13:03;;;;;;;7.40;6.20;;;11.20;99.90;;;;;;5135122;27;20437;-49
2022/04/16 00:15:32;;;;;;;6.90;6.20;;;11.20;99.90;;;;;;5135733;27;20532;-50
2022/04/16 00:17:59;;;;;;;10.77;7.33;;;11.20;99.90;;;;;;5135630;27;20437;-49
2022/04/16 00:20:26;;;;;;;6.70;6.13;;;11.40;99.90;;;;;;5135346;27;20901;-50
2022/04/16 00:22:53;;;;;;;7.17;6.27;;;11.60;99.90;;;;;;5135583;27;20786;-49
2022/04/16 00:25:21;;;;;;;6.30;5.80;;;11.80;99.90;;;;;;5135597;27;20883;-50
2022/04/16 00:27:48;;;;;;;6.40;5.70;;;11.70;99.90;;;;;;5135814;27;20441;-49
2022/04/16 00:30:17;;;;;;;6.93;6.33;;;11.30;99.90;;;;;;5135722;27;20869;-49
2022/04/16 00:32:45;;;;;;;6.40;5.80;;;11.40;99.90;;;;;;5135254;27;20441;-49
2022/04/16 00:35:15;;;;;;;7.03;6.40;;;11.50;99.90;;;;;;5135439;27;20455;-49
2022/04/16 00:37:42;;;;;;;7.53;5.90;;;11.40;99.90;;;;;;5135548;27;20490;-50
2022/04/16 00:40:10;;;;;;;5.63;5.13;;;11.10;99.90;;;;;;5134817;27;20497;-50
2022/04/16 00:42:39;;;;;;;5.77;5.27;;;11.10;99.90;;;;;;5134884;27;20858;-53
2022/04/16 00:45:07;;;;;;;6.80;5.80;;;11.30;99.90;;;;;;5135177;27;20473;-49
2022/04/16 00:47:36;;;;;;;6.57;5.97;;;11.50;99.90;;;;;;5135534;27;20499;-49
2022/04/16 00:50:05;;;;;;;6.93;6.23;;;11.60;99.90;;;;;;5135284;27;20830;-49
2022/04/16 00:52:32;;;;;;;6.00;5.40;;;11.60;99.90;;;;;;5134628;27;20442;-49
2022/04/16 00:54:59;;;;;;;5.83;5.33;;;11.40;99.90;;;;;;5134883;27;20430;-49
2022/04/16 00:57:26;;;;;;;6.13;5.57;;;11.30;99.90;;;;;;5135149;27;20434;-52
2022/04/16 00:59:54;;;;;;;5.97;5.40;;;11.30;99.90;;;;;;5134794;27;21037;-49
2022/04/16 01:02:21;;;;;;;7.00;6.10;;;11.10;99.90;;;;;;5134723;27;20533;-49
2022/04/16 01:04:48;;;;;;;6.10;5.50;;;10.90;99.90;;;;;;5134762;27;20503;-50
2022/04/16 01:07:22;;;;;;;6.03;5.43;;;11.20;99.90;;;;;;5134598;27;20749;-50
2022/04/16 01:09:49;;;;;;;6.60;6.00;;;11.30;99.90;;;;;;5134729;27;20462;-50
2022/04/16 01:12:17;;;;;;;5.80;5.30;;;11.40;99.90;;;;;;5134276;27;20441;-49
2022/04/16 01:14:45;;;;;;;6.97;6.23;;;11.40;99.90;;;;;;5134759;27;20472;-49
2022/04/16 01:17:12;;;;;;;6.27;5.67;;;11.40;99.90;;;;;;5135001;27;20481;-50
2022/04/16 01:19:40;;;;;;;7.80;5.93;;;11.50;99.90;;;;;;5134386;27;20469;-49
2022/04/16 01:22:07;;;;;;;7.73;5.60;;;11.50;99.90;;;;;;5134593;27;20497;-48
2022/04/16 01:24:37;;;;;;;6.30;5.70;;;11.50;99.90;;;;;;5134277;27;20434;-50
2022/04/16 01:27:04;;;;;;;5.97;5.17;;;11.40;99.90;;;;;;5134493;27;20490;-50
2022/04/16 01:29:31;;;;;;;6.80;5.43;;;11.60;99.90;;;;;;5134214;27;20497;-49
2022/04/16 01:31:59;;;;;;;4.93;4.47;;;11.50;99.90;;;;;;5134213;27;20996;-49
2022/04/16 01:34:26;;;;;;;5.63;5.20;;;11.30;99.90;;;;;;5134128;27;20518;-49
2022/04/16 01:36:53;;;;;;;6.93;5.50;;;11.30;99.90;;;;;;5134272;27;20434;-53
2022/04/16 01:39:20;;;;;;;6.73;4.90;;;11.40;99.90;;;;;;5133664;27;20823;-49
2022/04/16 01:41:49;;;;;;;5.93;5.37;;;11.40;99.90;;;;;;5133970;27;20523;-54
2022/04/16 01:44:16;;;;;;;7.30;6.20;;;11.50;99.90;;;;;;5133927;27;20516;-49
2022/04/16 01:46:43;;;;;;;8.93;6.77;;;11.60;99.90;;;;;;5133901;27;20469;-49
2022/04/16 01:49:10;;;;;;;7.90;5.50;;;11.40;99.90;;;;;;5134163;27;20647;-50
2022/04/16 01:51:37;;;;;;;5.73;5.00;;;11.20;99.90;;;;;;5134125;27;20446;-49
2022/04/16 01:54:04;;;;;;;5.70;5.20;;;11.00;99.90;;;;;;5133628;27;20474;-49
2022/04/16 01:56:31;;;;;;;6.90;6.20;;;10.70;99.90;;;;;;5133610;27;20440;-49
2022/04/16 01:58:59;;;;;;;7.43;6.83;;;10.50;99.90;;;;;;5133893;27;20458;-52
2022/04/16 02:01:26;;;;;;;6.23;5.63;;;10.50;99.90;;;;;;5133479;27;20524;-50
2022/04/16 02:03:53;;;;;;;9.03;8.20;;;10.30;99.90;;;;;;5133518;27;20490;-49
2022/04/16 02:06:20;;;;;;;6.40;5.30;;;10.30;99.90;;;;;;5133736;27;20545;-49
2022/04/16 02:08:48;;;;;;;6.63;5.90;;;10.20;99.90;;;;;;5133113;27;20524;-49
2022/04/16 02:11:15;;;;;;;7.47;6.33;;;10.50;99.90;;;;;;5133415;27;20456;-49
2022/04/16 02:13:42;;;;;;;9.60;6.03;;;10.70;99.90;;;;;;5132565;27;20476;-49
2022/04/16 02:16:11;;;;;;;6.30;5.77;;;11.00;99.90;;;;;;5133622;27;20430;-54
2022/04/16 02:18:38;;;;;;;6.20;5.60;;;11.10;99.90;;;;;;5133176;27;20971;-49
2022/04/16 02:21:05;;;;;;;8.00;5.70;;;11.00;99.90;;;;;;5133404;27;20437;-49
2022/04/16 02:23:32;;;;;;;5.67;5.17;;;10.80;99.90;;;;;;5132984;27;20997;-50
2022/04/16 02:25:59;;;;;;;6.80;6.30;;;10.80;99.90;;;;;;5133186;27;20866;-50
2022/04/16 02:28:26;;;;;;;6.53;5.97;;;11.00;99.90;;;;;;5133219;27;20881;-51
2022/04/16 02:30:53;;;;;;;6.30;5.70;;;11.20;99.90;;;;;;5133011;27;20496;-49
2022/04/16 02:33:21;;;;;;;6.47;4.80;;;11.40;99.90;;;;;;5132998;27;20626;-49
2022/04/16 02:35:48;;;;;;;6.37;5.87;;;11.40;99.90;;;;;;5133036;27;20437;-52
2022/04/16 02:38:15;;;;;;;5.70;5.20;;;11.40;99.90;;;;;;5132506;27;20481;-49
2022/04/16 02:40:42;;;;;;;5.23;4.83;;;11.40;99.90;;;;;;5133062;27;20457;-49
2022/04/16 02:43:09;;;;;;;6.90;5.57;;;11.10;99.90;;;;;;5132732;27;20434;-50
2022/04/16 02:48:22;;;;;;;5.53;5.03;;;10.60;99.90;;;;;;5132919;27;20553;-49
2022/04/16 02:50:50;;;;;;;5.13;4.60;;;10.50;99.90;;;;;;5132911;27;20553;-49
2022/04/16 02:53:17;;;;;;;10.27;5.70;;;10.70;99.90;;;;;;5132474;27;20448;-48
2022/04/16 02:55:46;;;;;;;7.20;6.50;;;10.90;99.90;;;;;;5132707;27;20516;-52
2022/04/16 02:58:13;;;;;;;6.00;5.20;;;11.00;99.90;;;;;;5132607;27;20490;-48
2022/04/16 03:00:41;;;;;;;6.07;5.47;;;11.00;99.90;;;;;;5132813;27;20526;-50
2022/04/16 03:03:09;;;;;;;5.40;4.90;;;11.10;99.90;;;;;;5132158;27;20494;-48
2022/04/16 03:05:37;;;;;;;6.23;5.53;;;10.90;99.90;;;;;;5132821;27;20557;-48
2022/04/16 03:08:07;;;;;;;6.07;5.37;;;10.50;99.90;;;;;;5132501;27;20519;-52
2022/04/16 03:10:34;;;;;;;6.73;5.77;;;10.00;99.90;;;;;;5132230;27;20454;-48
2022/04/16 03:13:02;;;;;;;6.73;6.13;;;10.20;99.90;;;;;;5132491;27;20509;-48
2022/04/16 03:18:13;;;;;;;6.53;5.93;;;10.60;99.90;;;;;;5132933;27;20550;-50
2022/04/16 03:20:44;;;;;;;8.83;5.67;;;10.50;99.90;;;;;;5133633;27;20990;-48
2022/04/16 03:23:11;;;;;;;6.43;5.40;;;10.40;99.90;;;;;;5132132;27;20449;-48
2022/04/16 03:25:40;;;;;;;5.90;5.40;;;10.30;99.90;;;;;;5131408;27;20552;-48
2022/04/16 03:28:07;;;;;;;6.03;5.33;;;10.20;99.90;;;;;;5132221;27;20433;-48
2022/04/16 03:30:34;;;;;;;5.63;5.13;;;10.10;99.90;;;;;;5131985;27;20454;-48
2022/04/16 03:33:01;;;;;;;5.83;5.23;;;10.20;99.90;;;;;;5132318;27;21019;-49
2022/04/16 03:35:28;;;;;;;6.83;5.70;;;10.20;99.90;;;;;;5132034;27;20440;-48
2022/04/16 03:37:57;;;;;;;6.90;6.30;;;9.90;99.90;;;;;;5131638;27;20970;-48
2022/04/16 03:40:26;;;;;;;7.87;7.17;;;9.80;99.90;;;;;;5132248;28;20525;-48
2022/04/16 03:42:55;;;;;;;6.60;6.00;;;9.70;99.90;;;;;;5132079;28;20449;-48
2022/04/16 03:45:25;;;;;;;9.00;6.13;;;9.80;99.90;;;;;;5131864;28;20437;-48
2022/04/16 03:47:53;;;;;;;6.83;6.20;;;9.80;99.90;;;;;;5132072;28;20642;-48
2022/04/16 03:50:21;;;;;;;8.00;7.30;;;9.70;99.90;;;;;;5131624;28;20453;-48
2022/04/16 03:52:49;;;;;;;7.20;6.13;;;9.70;99.90;;;;;;5131827;28;20460;-49
2022/04/16 04:00:50;;;;;;;15.00;10.30;;;9.60;99.90;;;;;;5131807;28;20569;-50
2022/04/16 04:03:17;;;;;;;14.60;10.30;;;9.60;99.90;;;;;;5131683;28;20490;-48
2022/04/16 04:05:46;;;;;;;10.10;9.10;;;9.80;99.90;;;;;;5132026;28;20473;-48
2022/04/16 04:08:13;;;;;;;6.97;6.23;;;9.80;99.90;;;;;;5131743;28;20465;-48
2022/04/16 04:10:42;;;;;;;9.07;8.07;;;9.90;99.90;;;;;;5131685;28;20485;-49
2022/04/16 04:13:09;;;;;;;8.10;7.20;;;10.00;99.90;;;;;;5131163;27;20487;-49
2022/04/16 04:15:36;;;;;;;9.20;7.97;;;9.90;99.90;;;;;;5131736;28;20470;-48
2022/04/16 04:18:03;;;;;;;8.87;8.00;;;10.10;99.90;;;;;;5131690;28;20486;-51
2022/04/16 04:20:30;;;;;;;9.77;8.20;;;10.30;99.90;;;;;;5131485;28;20480;-48
2022/04/16 04:22:57;;;;;;;8.50;7.40;;;10.40;99.90;;;;;;5131842;28;20441;-50
2022/04/16 04:25:25;;;;;;;7.97;7.17;;;10.60;99.90;;;;;;5131757;28;20525;-48
2022/04/16 04:27:53;;;;;;;6.37;5.67;;;10.70;99.90;;;;;;5131621;28;20490;-50
2022/04/16 04:30:21;;;;;;;8.70;6.97;;;10.50;99.90;;;;;;5131571;28;20458;-48
2022/04/16 04:32:48;;;;;;;7.60;6.10;;;10.50;99.90;;;;;;5131230;28;20546;-53
2022/04/16 04:35:15;;;;;;;7.23;6.53;;;10.30;99.90;;;;;;5131592;28;20430;-48
2022/04/16 04:37:42;;;;;;;8.07;7.07;;;10.40;99.90;;;;;;5133228;27;20491;-48
2022/04/16 04:40:10;;;;;;;8.13;6.77;;;10.40;99.90;;;;;;5135279;27;20540;-49
2022/04/16 04:42:37;;;;;;;7.13;6.40;;;10.60;99.90;;;;;;5135298;27;20486;-48
2022/04/16 04:45:11;;;;;;;8.47;7.07;;;10.30;99.90;;;;;;5135230;27;20445;-48
2022/04/16 04:47:38;;;;;;;8.07;7.20;;;9.80;99.90;;;;;;5135447;27;20561;-48
2022/04/16 04:50:06;;;;;;;10.10;7.70;;;9.50;99.90;;;;;;5134971;27;20457;-49
2022/04/16 04:52:35;;;;;;;7.90;7.20;;;9.50;99.90;;;;;;5134572;27;20479;-49
2022/04/16 04:55:03;;;;;;;8.10;7.20;;;9.60;99.90;;;;;;5135251;27;20877;-48
2022/04/16 04:57:30;;;;;;;8.63;7.80;;;9.70;99.90;;;;;;5135254;27;20509;-49
2022/04/16 04:59:57;;;;;;;7.93;7.20;;;9.90;99.90;;;;;;5134966;27;20496;-48
2022/04/16 05:02:25;;;;;;;8.30;7.50;;;10.20;99.90;;;;;;5134530;27;20463;-48
2022/04/16 05:04:52;;;;;;;7.90;7.00;;;10.30;99.90;;;;;;5134996;27;20988;-48
2022/04/16 05:07:19;;;;;;;8.10;7.23;;;10.50;99.90;;;;;;5134342;27;20564;-48
2022/04/16 05:09:46;;;;;;;8.37;7.50;;;10.30;99.90;;;;;;5134708;27;20552;-48
2022/04/16 05:12:13;;;;;;;7.80;6.57;;;10.00;99.90;;;;;;5134694;27;20527;-48
2022/04/16 05:14:39;;;;;;;9.10;7.33;;;9.80;99.90;;;;;;5134488;27;20978;-48
2022/04/16 05:17:07;;;;;;;7.50;6.90;;;9.80;99.90;;;;;;5134726;27;20839;-50
2022/04/16 05:19:35;;;;;;;8.57;7.77;;;9.90;99.90;;;;;;5134814;27;20556;-48
2022/04/16 05:22:02;;;;;;;8.73;7.70;;;10.10;99.90;;;;;;5134397;27;20437;-48
2022/04/16 05:24:29;;;;;;;8.03;7.10;;;10.30;99.90;;;;;;5134240;27;20528;-47
2022/04/16 05:26:56;;;;;;;9.00;7.50;;;10.00;99.90;;;;;;5134335;27;20563;-48
2022/04/16 05:29:24;;;;;;;9.77;8.87;;;9.80;99.90;;;;;;5134566;27;20546;-49
2022/04/16 05:31:51;;;;;;;9.03;8.17;;;9.80;99.90;;;;;;5134520;27;20453;-48
2022/04/16 05:34:21;;;;;;;8.40;7.70;;;9.90;99.90;;;;;;5134315;27;20861;-48
2022/04/16 05:36:50;;;;;;;9.57;8.40;;;9.80;99.90;;;;;;5134254;27;20529;-50
2022/04/16 05:39:18;;;;;;;8.77;7.87;;;9.80;99.90;;;;;;5133611;27;20817;-48
2022/04/16 05:41:45;;;;;;;9.67;8.67;;;9.70;99.90;;;;;;5134193;27;20823;-48
2022/04/16 05:44:12;;;;;;;9.97;8.93;;;9.80;99.90;;;;;;5134045;27;20470;-50
2022/04/16 05:46:40;;;;;;;9.30;7.33;;;10.00;99.90;;;;;;5134016;27;20509;-48
2022/04/16 05:49:06;;;;;;;9.40;7.50;;;10.30;99.90;;;;;;5132824;27;20466;-51
2022/04/16 05:51:33;;;;;;;10.13;9.13;;;10.50;99.90;;;;;;5134129;27;20494;-48
2022/04/16 05:54:04;;;;;;;9.67;8.67;;;10.70;99.90;;;;;;5133480;27;21131;-48
2022/04/16 05:56:31;;;;;;;10.83;8.90;;;10.90;99.90;;;;;;5134207;27;20429;-48
2022/04/16 05:59:00;;;;;;;9.80;8.80;;;11.00;99.90;;;;;;5134118;27;20492;-48
2022/04/16 06:01:27;;;;;;;9.80;8.90;;;11.00;99.90;;;;;;5134046;27;20494;-45
2022/04/16 06:03:54;;;;;;;15.60;11.50;;;11.10;99.90;;;;;;5133293;27;20434;-48
2022/04/16 06:06:21;;;;;;;10.40;9.30;;;11.20;99.90;;;;;;5133717;27;20552;-48
2022/04/16 06:08:48;;;;;;;13.07;9.97;;;11.30;99.90;;;;;;5133080;27;20528;-49
2022/04/16 06:11:18;;;;;;;9.30;8.50;;;11.30;99.90;;;;;;5133598;27;20472;-48
2022/04/16 06:13:45;;;;;;;9.73;8.83;;;11.20;99.90;;;;;;5133694;27;20502;-48
2022/04/16 06:16:12;;;;;;;9.23;8.40;;;11.20;99.90;;;;;;5133328;27;20494;-48
2022/04/16 06:18:39;;;;;;;10.63;7.67;;;11.30;99.90;;;;;;5133732;27;20441;-47
2022/04/16 06:21:06;;;;;;;9.10;7.43;;;11.50;99.90;;;;;;5133591;27;20503;-48
2022/04/16 06:23:33;;;;;;;9.43;7.97;;;11.40;99.90;;;;;;5133543;27;20469;-49
2022/04/16 06:26:00;;;;;;;10.90;8.83;;;11.50;99.90;;;;;;5133395;27;20438;-48
2022/04/16 06:28:28;;;;;;;8.37;7.67;;;11.50;99.90;;;;;;5133620;27;20713;-48
2022/04/16 06:30:55;;;;;;;10.30;8.60;;;11.80;99.90;;;;;;5132863;27;20592;-48
2022/04/16 06:33:22;;;;;;;9.17;8.00;;;11.80;99.90;;;;;;5132442;27;20437;-48
2022/04/16 06:35:49;;;;;;;9.47;8.60;;;11.90;99.90;;;;;;5133067;27;20860;-48
2022/04/16 06:38:16;;;;;;;8.67;7.87;;;11.90;99.90;;;;;;5132906;27;20461;-49
2022/04/16 06:40:43;;;;;;;9.33;8.47;;;11.80;99.90;;;;;;5132995;27;20871;-48
2022/04/16 06:43:09;;;;;;;8.60;7.90;;;11.70;99.90;;;;;;5132621;27;20784;-48
2022/04/16 06:45:38;;;;;;;9.00;8.10;;;11.70;99.90;;;;;;5133032;27;20545;-48
2022/04/16 06:48:05;;;;;;;9.63;8.70;;;11.40;99.90;;;;;;5132740;27;20485;-48
2022/04/16 06:50:32;;;;;;;9.07;8.17;;;11.00;99.90;;;;;;5133039;27;20879;-50
2022/04/16 06:53:00;;;;;;;9.63;8.40;;;10.60;99.90;;;;;;5132765;27;20437;-48
2022/04/16 06:55:27;;;;;;;9.23;8.20;;;10.60;99.90;;;;;;5132392;27;20999;-49
2022/04/16 06:57:54;;;;;;;8.17;7.37;;;10.40;99.90;;;;;;5132458;27;20470;-48
2022/04/16 07:00:21;;;;;;;9.97;9.00;;;10.10;99.90;;;;;;5132112;27;20497;-48
2022/04/16 07:02:49;;;;;;;10.20;8.87;;;10.30;99.90;;;;;;5132164;27;20878;-48
2022/04/16 07:05:16;;;;;;;11.93;8.63;;;10.40;99.90;;;;;;5132340;27;20537;-48
2022/04/16 07:07:43;;;;;;;16.33;9.00;;;10.60;99.90;;;;;;5131844;27;20480;-50
2022/04/16 07:10:11;;;;;;;8.90;8.00;;;10.70;99.90;;;;;;5132154;27;20496;-48
2022/04/16 07:12:38;;;;;;;7.97;7.20;;;10.80;99.90;;;;;;5131663;27;20936;-48
2022/04/16 07:15:07;;;;;;;8.63;7.73;;;10.70;99.90;;;;;;5132512;27;20437;-48
2022/04/16 07:17:33;;;;;;;9.10;7.93;;;11.00;99.90;;;;;;5132111;27;20469;-48
2022/04/16 07:20:02;;;;;;;8.90;7.73;;;11.20;99.90;;;;;;5132030;27;20556;-48
2022/04/16 07:22:29;;;;;;;8.17;7.40;;;10.70;99.90;;;;;;5131915;27;20520;-48
2022/04/16 07:24:56;;;;;;;10.20;9.17;;;10.60;99.90;;;;;;5132410;27;20473;-48
2022/04/16 07:27:22;;;;;;;11.70;10.50;;;11.00;99.90;;;;;;5131752;27;20913;-51
2022/04/16 07:29:52;;;;;;;8.80;7.40;;;11.20;99.90;;;;;;5132119;27;20540;-48
2022/04/16 07:32:19;;;;;;;9.43;8.53;;;11.20;99.90;;;;;;5131941;27;20481;-50
2022/04/16 07:34:46;;;;;;;9.83;7.70;;;11.10;99.90;;;;;;5132138;27;20445;-48
2022/04/16 07:37:14;;;;;;;8.77;7.90;;;11.00;99.90;;;;;;5131867;27;20866;-48
2022/04/16 07:39:41;;;;;;;12.60;7.50;;;11.00;99.90;;;;;;5131714;28;20457;-48
2022/04/16 07:42:08;;;;;;;9.43;7.43;;;11.10;99.90;;;;;;5131623;28;20443;-47
2022/04/16 07:44:35;;;;;;;8.40;7.70;;;11.10;99.90;;;;;;5132143;28;20540;-48
2022/04/16 07:47:03;;;;;;;9.00;8.20;;;10.90;99.90;;;;;;5131976;28;20988;-48
2022/04/16 07:49:30;;;;;;;8.10;7.30;;;10.90;99.90;;;;;;5132032;28;20496;-48
2022/04/16 07:51:57;;;;;;;8.97;8.07;;;10.70;99.90;;;;;;5131910;28;20860;-49
2022/04/16 07:54:25;;;;;;;10.73;9.73;;;10.60;99.90;;;;;;5131851;28;20437;-48
2022/04/16 07:56:52;;;;;;;9.00;8.10;;;10.50;99.90;;;;;;5131805;28;20520;-48
2022/04/16 07:59:19;;;;;;;11.00;9.00;;;10.60;99.90;;;;;;5131918;28;20892;-50
2022/04/16 08:01:46;;;;;;;9.77;8.77;;;10.70;99.90;;;;;;5132120;28;20516;-47
2022/04/16 08:04:12;;;;;;;9.30;8.43;;;10.60;99.90;;;;;;5131913;28;20485;-48
2022/04/16 08:06:39;;;;;;;10.23;9.20;;;10.50;99.90;;;;;;5131842;28;20441;-48
2022/04/16 08:09:06;;;;;;;10.67;9.67;;;10.50;99.90;;;;;;5131407;28;20841;-48
2022/04/16 08:11:35;;;;;;;10.97;8.17;;;10.30;99.90;;;;;;5131968;27;20594;-47
2022/04/16 08:14:02;;;;;;;12.23;8.27;;;10.50;99.90;;;;;;5135307;27;20805;-49
2022/04/16 08:16:29;;;;;;;9.83;8.63;;;10.80;99.90;;;;;;5135759;27;20488;-49
2022/04/16 08:18:57;;;;;;;8.07;7.00;;;11.20;99.90;;;;;;5135635;27;20457;-51
2022/04/16 08:21:25;;;;;;;8.10;7.30;;;11.20;99.90;;;;;;5135818;27;20442;-50
2022/04/16 08:24:03;;;;;;;17.83;8.53;;;11.40;99.90;;;;;;5135568;27;20445;-50
2022/04/16 08:26:30;;;;;;;9.40;7.50;;;11.60;99.90;;;;;;5135244;27;20445;-47
2022/04/16 08:28:58;;;;;;;6.83;6.23;;;11.70;99.90;;;;;;5135338;27;20568;-48
2022/04/16 08:31:26;;;;;;;9.97;7.60;;;11.60;99.90;;;;;;5135693;27;20524;-48
2022/04/16 08:33:52;;;;;;;8.63;7.07;;;11.60;99.90;;;;;;5135329;27;20476;-48
2022/04/16 08:36:19;;;;;;;8.73;6.70;;;11.90;99.90;;;;;;5135217;27;20473;-48
2022/04/16 08:38:46;;;;;;;6.20;5.60;;;12.00;99.90;;;;;;5135050;27;20461;-48
2022/04/16 08:41:14;;;;;;;8.57;7.23;;;12.30;99.90;;;;;;5135558;27;20620;-51
2022/04/16 08:43:42;;;;;;;5.93;5.30;;;12.30;99.90;;;;;;5134943;27;20803;-48
2022/04/16 08:46:11;;;;;;;5.30;4.80;;;12.30;99.90;;;;;;5135155;27;20927;-48
2022/04/16 08:48:38;;;;;;;56.00;8.80;;;12.40;99.90;;;;;;5135512;27;20572;-47
2022/04/16 08:51:05;;;;;;;11.93;5.47;;;12.30;99.90;;;;;;5135771;27;20469;-45
2022/04/16 08:53:32;;;;;;;16.57;5.87;;;12.00;99.90;;;;;;5135262;27;20733;-49
2022/04/16 08:55:59;;;;;;;7.00;5.03;;;11.70;99.90;;;;;;5135011;27;20882;-50
2022/04/16 08:58:26;;;;;;;5.87;4.70;;;11.70;99.90;;;;;;5135329;27;20490;-47
2022/04/16 09:00:53;;;;;;;10.80;5.13;;;11.80;99.90;;;;;;5135032;27;20548;-51
2022/04/16 09:03:21;;;;;;;6.03;4.30;;;11.90;99.90;;;;;;5134770;27;20509;-49
2022/04/16 09:05:55;;;;;;;6.80;5.20;;;12.10;99.90;;;;;;5135437;27;20474;-48
2022/04/16 09:08:28;;;;;;;8.17;5.07;;;12.20;99.90;;;;;;5135130;27;20472;-47
2022/04/16 09:11:05;;;;;;;5.60;4.37;;;12.20;99.90;;;;;;5134747;27;20871;-51
2022/04/16 09:13:32;;;;;;;4.50;3.30;;;12.50;99.90;;;;;;5134452;27;20494;-48
2022/04/16 09:16:04;;;;;;;5.27;4.00;;;12.40;99.90;;;;;;5134600;27;20438;-47
2022/04/16 09:18:44;;;;;;;4.30;3.50;;;12.20;99.90;;;;;;5134806;27;20532;-47
2022/04/16 09:21:13;;;;;;;4.40;3.97;;;12.70;99.90;;;;;;5136051;27;20852;-47
2022/04/16 09:23:48;;;;;;;5.73;3.60;;;12.40;99.90;;;;;;5134198;27;20520;-52
2022/04/16 09:26:25;;;;;;;5.00;3.77;;;12.50;99.90;;;;;;5134617;27;20481;-48
2022/04/16 09:28:53;;;;;;;4.50;3.27;;;12.40;99.90;;;;;;5134100;27;21009;-49
2022/04/16 09:31:24;;;;;;;6.50;4.10;;;12.40;99.90;;;;;;5134578;27;20473;-47
2022/04/16 09:33:52;;;;;;;5.33;3.40;;;12.40;99.90;;;;;;5134276;27;20498;-49
2022/04/16 09:36:25;;;;;;;3.33;3.03;;;12.60;99.90;;;;;;5134824;27;20470;-49
2022/04/16 09:39:00;;;;;;;3.40;2.80;;;12.40;99.90;;;;;;5133910;27;20469;-47
2022/04/16 09:41:34;;;;;;;2.83;2.60;;;12.20;99.90;;;;;;5134068;27;20786;-50
2022/04/16 09:44:02;;;;;;;6.37;3.30;;;12.10;99.90;;;;;;5133895;27;20441;-49
2022/04/16 09:46:30;;;;;;;5.53;3.20;;;12.40;99.90;;;;;;5134192;27;20859;-47
2022/04/16 09:49:02;;;;;;;4.67;3.03;;;12.60;99.90;;;;;;5134175;27;20546;-46
2022/04/16 09:51:33;;;;;;;3.40;3.10;;;13.00;99.90;;;;;;5134336;27;20441;-47
2022/04/16 09:54:02;;;;;;;3.33;3.00;;;12.90;99.90;;;;;;5133705;27;20924;-49
2022/04/16 09:56:31;;;;;;;4.40;3.67;;;13.00;99.90;;;;;;5133749;27;20469;-47
2022/04/16 09:59:01;;;;;;;5.03;3.40;;;13.20;99.90;;;;;;5133818;27;20493;-47
2022/04/16 10:01:29;;;;;;;4.70;3.10;;;13.40;99.90;;;;;;5134327;27;20532;-47
2022/04/16 10:03:57;;;;;;;5.57;3.40;;;13.30;99.90;;;;;;5133677;27;20487;-47
2022/04/16 10:06:26;;;;;;;4.80;3.00;;;13.20;99.90;;;;;;5134013;27;20483;-47
2022/04/16 10:08:53;;;;;;;3.50;3.20;;;13.30;99.90;;;;;;5133161;27;20560;-47
2022/04/16 10:11:41;;;;;;;3.20;2.80;;;13.50;99.90;;;;;;5133699;27;20866;-47
2022/04/16 10:14:16;;;;;;;3.40;3.07;;;13.30;99.90;;;;;;5133282;27;20525;-47
2022/04/16 10:16:58;;;;;;;3.00;2.73;;;13.30;99.90;;;;;;5133587;27;20487;-47
2022/04/16 10:19:25;;;;;;;3.60;2.70;;;13.60;99.90;;;;;;5133508;27;21019;-47
2022/04/16 10:21:56;;;;;;;4.50;2.70;;;13.60;99.90;;;;;;5133407;27;20480;-47
2022/04/16 10:24:28;;;;;;;2.97;2.43;;;13.40;99.90;;;;;;5133261;27;20434;-49
2022/04/16 10:27:04;;;;;;;2.60;2.40;;;13.00;99.90;;;;;;5133015;27;20886;-47
2022/04/16 10:29:37;;;;;;;2.93;2.10;;;12.60;99.90;;;;;;5132817;27;20852;-47
2022/04/16 10:32:15;;;;;;;4.47;3.03;;;12.80;99.90;;;;;;5133478;27;20445;-47
2022/04/16 10:34:43;;;;;;;2.40;2.20;;;13.00;99.90;;;;;;5132648;27;20442;-47
2022/04/16 10:37:21;;;;;;;3.17;2.87;;;12.80;99.90;;;;;;5132777;27;20919;-47
2022/04/16 10:39:48;;;;;;;4.23;2.97;;;12.70;99.90;;;;;;5132722;27;20465;-47
2022/04/16 10:42:15;;;;;;;2.87;2.30;;;12.90;99.90;;;;;;5132874;27;20552;-49
2022/04/16 10:44:47;;;;;;;3.93;2.63;;;13.00;99.90;;;;;;5132735;27;20484;-48
2022/04/16 10:47:15;;;;;;;4.33;3.40;;;13.20;99.90;;;;;;5133081;27;20874;-48
2022/04/16 10:49:43;;;;;;;4.70;3.20;;;13.20;99.90;;;;;;5132726;27;20477;-49
2022/04/16 10:52:21;;;;;;;9.80;2.97;;;13.30;99.90;;;;;;5132608;27;20553;-49
2022/04/16 10:54:48;;;;;;;19.50;3.93;;;13.20;99.90;;;;;;5133230;27;20521;-52
2022/04/16 10:57:22;;;;;;;3.73;2.40;;;12.90;99.90;;;;;;5132850;27;20465;-47
2022/04/16 10:59:49;;;;;;;37.13;7.90;;;12.70;99.90;;;;;;5132656;27;20490;-47
2022/04/16 11:02:20;;;;;;;3.07;2.60;;;12.40;99.90;;;;;;5132759;27;20466;-46
2022/04/16 11:04:58;;;;;;;3.10;2.10;;;12.40;99.90;;;;;;5132763;27;20486;-47
2022/04/16 11:07:27;;;;;;;3.10;2.77;;;12.60;99.90;;;;;;5132352;27;20490;-49
2022/04/16 11:09:55;;;;;;;3.33;2.73;;;12.90;99.90;;;;;;5132146;27;20474;-48
2022/04/16 11:12:23;;;;;;;2.57;2.37;;;12.80;99.90;;;;;;5132204;27;20450;-47
2022/04/16 11:14:50;;;;;;;2.90;2.60;;;12.60;99.90;;;;;;5132523;27;20477;-47
2022/04/16 11:17:17;;;;;;;3.83;2.70;;;12.30;99.90;;;;;;5132433;27;20882;-46
2022/04/16 11:19:44;;;;;;;2.87;2.57;;;12.20;99.90;;;;;;5132132;27;20844;-46
2022/04/16 11:22:11;;;;;;;3.30;2.90;;;12.30;99.90;;;;;;5132059;27;20441;-47
2022/04/16 11:24:40;;;;;;;4.63;2.47;;;12.40;99.90;;;;;;5132010;27;20541;-47
2022/04/16 11:35:24;;;;;;;3.60;2.70;;;11.80;99.90;;;;;;5132355;27;20989;-46
2022/04/16 11:37:54;;;;;;;4.83;2.60;;;11.80;99.90;;;;;;5132135;27;20433;-47
2022/04/16 11:40:23;;;;;;;4.83;2.77;;;11.60;99.90;;;;;;5132083;27;21039;-47
2022/04/16 11:42:50;;;;;;;2.70;2.50;;;11.50;99.90;;;;;;5131797;28;20510;-47
2022/04/16 11:45:17;;;;;;;3.73;2.80;;;11.60;99.90;;;;;;5132312;28;20442;-50
2022/04/16 11:47:44;;;;;;;2.47;2.00;;;11.80;99.90;;;;;;5134047;27;20542;-46
2022/04/16 11:50:13;;;;;;;2.43;2.07;;;11.90;99.90;;;;;;5136179;27;20497;-46
2022/04/16 11:52:40;;;;;;;3.10;2.20;;;12.00;99.90;;;;;;5136076;27;20524;-46
2022/04/16 11:55:10;;;;;;;4.60;2.40;;;12.00;99.90;;;;;;5136453;27;20721;-47
2022/04/16 11:57:44;;;;;;;3.23;2.57;;;11.80;99.90;;;;;;5136212;27;20437;-47
2022/04/16 12:00:12;;;;;;;2.90;2.70;;;11.90;99.90;;;;;;5136500;27;20481;-48
2022/04/16 12:02:42;;;;;;;3.03;2.33;;;11.80;99.90;;;;;;5136038;27;20473;-48
2022/04/16 12:05:11;;;;;;;2.80;2.60;;;11.80;99.90;;;;;;5135775;27;20445;-47
2022/04/16 12:07:41;;;;;;;2.40;2.20;;;12.10;99.90;;;;;;5135919;27;20441;-47
2022/04/16 12:10:08;;;;;;;3.70;2.17;;;11.90;99.90;;;;;;5135424;27;20560;-47
2022/04/16 12:12:48;;;;;;;2.43;2.23;;;11.80;99.90;;;;;;5135403;27;20480;-47
2022/04/16 12:15:22;;;;;;;2.83;2.57;;;12.10;99.90;;;;;;5135864;27;20437;-48
2022/04/16 12:17:50;;;;;;;2.13;1.80;;;12.20;99.90;;;;;;5136255;27;20447;-48
2022/04/16 12:20:20;;;;;;;1.73;1.63;;;11.90;99.10;;;;;;5135533;27;20465;-47
2022/04/16 12:22:52;;;;;;;2.63;2.17;;;11.80;98.90;;;;;;5135598;27;20445;-46
2022/04/16 12:25:21;;;;;;;3.00;1.80;;;11.70;99.90;;;;;;5135611;27;20476;-48
2022/04/16 12:27:52;;;;;;;1.97;1.77;;;11.70;99.90;;;;;;5135386;27;20797;-50
2022/04/16 12:30:20;;;;;;;2.00;1.80;;;11.60;99.40;;;;;;5135531;27;20478;-47
2022/04/16 12:32:57;;;;;;;2.00;1.80;;;11.60;99.20;;;;;;5135390;27;20942;-47
2022/04/16 12:35:25;;;;;;;2.90;1.93;;;11.50;98.50;;;;;;5135818;27;20498;-47
2022/04/16 12:37:53;;;;;;;2.90;2.23;;;11.40;99.70;;;;;;5135296;27;20445;-49
2022/04/16 12:40:20;;;;;;;137.77;20.90;;;11.50;99.60;;;;;;5135552;27;20536;-46
2022/04/16 12:42:49;;;;;;;3.60;2.97;;;11.70;99.90;;;;;;5134865;27;20524;-48
2022/04/16 12:45:16;;;;;;;4.47;2.07;;;11.70;99.90;;;;;;5135158;27;20463;-47
2022/04/16 12:47:43;;;;;;;17.80;4.63;;;11.70;99.90;;;;;;5135346;27;20466;-45
2022/04/16 12:50:10;;;;;;;5.00;2.57;;;11.80;99.90;;;;;;5135009;27;20477;-45
2022/04/16 12:52:38;;;;;;;5.90;2.80;;;12.10;99.90;;;;;;5134651;27;20473;-45
2022/04/16 12:55:05;;;;;;;4.90;2.90;;;11.90;99.90;;;;;;5135192;27;20433;-45
2022/04/16 12:57:32;;;;;;;5.90;2.80;;;12.00;99.90;;;;;;5134979;27;20463;-46
2022/04/16 13:00:00;;;;;;;11.43;3.50;;;12.00;99.90;;;;;;5134920;27;20497;-45
2022/04/16 13:02:27;;;;;;;7.43;2.90;;;12.20;99.30;;;;;;5134884;27;20472;-44
2022/04/16 13:04:54;;;;;;;3.20;3.00;;;12.00;99.50;;;;;;5134822;27;20947;-46
2022/04/16 13:07:21;;;;;;;11.47;3.60;;;11.50;99.90;;;;;;5135105;27;20445;-44
2022/04/16 13:09:49;;;;;;;3.77;3.47;;;11.50;99.90;;;;;;5135090;27;20573;-46